KCDR/CDR METAR and TAF weather

Enter ICAO airport designator
Station Type Date Time Source
KCDR METAR 2019/06/18 12:32 UTC NOAA

KCDR 181232Z AUTO 00000KT 5SM BR FEW002 OVC017 13/12 A3007 RMK AO2 T01280117


Station Type Date Time Source
KCDR Decoded METAR 2019/06/18 12:32 UTC NOAA

CHADRON MUNICIPAL AIRPORT, NE, United States (KCDR) 42-50N 103-06W 1010M
Jun 18, 2019 - 08:32 AM EDT / 2019.06.18 1232 UTC
Wind: Calm:0
Visibility: 5 mile(s):0
Sky conditions: overcast
Weather: mist
Temperature: 55.0 F (12.8 C)
Dew Point: 53.1 F (11.7 C)
Relative Humidity: 93%
Pressure (altimeter): 30.07 in. Hg (1018 hPa)
ob: KCDR 181232Z AUTO 00000KT 5SM BR FEW002 OVC017 13/12 A3007 RMK AO2 T01280117
cycle: 12

Station Type Date Time Source
KCDR TAF 2019/06/18 13:34 UTC NOAA

TAF
AMD KCDR 181232Z 1813/1912 VRB03KT 4SM BR BKN002 OVC020
FM181500 16008KT P6SM SCT005 OVC025
FM181900 16010KT P6SM VCTS SCT020 BKN050CB
FM182100 16010KT 5SM -TSRA BKN020 OVC050CB
FM190200 17008KT P6SM VCSH SCT030 OVC060
FM190600 18006KT P6SM BKN080

Example: see airport list